Winchester, TN

5:54 PM CST on December 22, 2014 (GMT -0600)
Farve Circle | Change Station
CLOSE
Current Station
Personal Weather Station
Location: Winchester, TN
Elevation: 968 ft
Nearby Weather Stations

Elev 968 ft 35.20 °N, 86.11 °W | Updated 4 minutes ago

Overcast
Overcast
51.2 °F
Feels Like 51.2 °F
N
10.0
Wind Variable Wind from ENE
Gusts 10.0 mph

Today
High -- | Low -- °F
--% Chance of Precip.
Yesterday
High -- | Low -- °F
Precip. -- in
6:49 AM 4:36 PM
New Moon, 1% visible
Pressure 29.77 in
Visibility 10.0 miles
Clouds Scattered Clouds 1500 ft
Mostly Cloudy 3200 ft
Overcast 6500 ft
Dew Point 48 °F
Humidity 87%
Rainfall 0.05 in
Snow Depth Not available.
UV 0 out of 12
Pollen .70 out of 12
Air Quality Not available.
Flu Activity Not available.
METAR KBGF 222335Z AUTO 14016KT 10SM SCT015 BKN032 OVC065 09/08 A2977 RMK

More Conditions Fewer Conditions

Pressure 29.77 in
Visibility 10.0 miles
Clouds Scattered Clouds 1500 ft
Mostly Cloudy 3200 ft
Overcast 6500 ft
Dew Point 48 °F
Humidity 87%
Rainfall 0.05 in
Snow Depth Not available.
UV 0 out of 12
Pollen .70 out of 12
Air Quality Not available.
Flu Activity Not available.
METAR KBGF 222335Z AUTO 14016KT 10SM SCT015 BKN032 OVC065 09/08 A2977 RMK

More Conditions Fewer Conditions

10-Day Weather Forecast

Almanac

Astronomy

Dec. 22, 2014 Rise Set
Actual Time
Civil Twilight
Nautical Twilight
Astronomical Twilight
Moon
Length of Visible Light
Length of Day
Tomorrow will be .
, % of the Moon is Illuminated

Today's Extremes

State Highs State Lows

Community

WunderPhotos

Upload Photos

1,779,723 photos uploaded!

WunderBlogs® & News

Nearby

Air Quality

  Air Quality AQ Index Pollutant
Not available.

Snow Depth

Station Depth Elevation

Earthquake Activity

City Distance Mag. Time & Date
Minimum magnitude displayed is 2.5.

Coastal Water Temperatures

Place Temperature

Nearby Weather Stations